sensor_id;sensor_type;location;lat;lon;timestamp;P1;durP1;ratioP1;P2;durP2;ratioP2
14121;SDS011;7139;48.114;11.442;2022-07-23T00:01:18;9.45;;;8.55;;
14121;SDS011;7139;48.114;11.442;2022-07-23T00:03:45;9.25;;;8.35;;
14121;SDS011;7139;48.114;11.442;2022-07-23T00:06:12;9.10;;;8.40;;
14121;SDS011;7139;48.114;11.442;2022-07-23T00:08:39;8.60;;;7.90;;
14121;SDS011;7139;48.114;11.442;2022-07-23T00:11:06;9.18;;;8.38;;
14121;SDS011;7139;48.114;11.442;2022-07-23T00:13:32;8.57;;;7.78;;
14121;SDS011;7139;48.114;11.442;2022-07-23T00:15:59;8.07;;;7.47;;
14121;SDS011;7139;48.114;11.442;2022-07-23T00:18:27;8.13;;;7.43;;
14121;SDS011;7139;48.114;11.442;2022-07-23T00:20:54;8.80;;;7.85;;
14121;SDS011;7139;48.114;11.442;2022-07-23T00:23:21;8.43;;;7.72;;
14121;SDS011;7139;48.114;11.442;2022-07-23T00:25:49;8.50;;;7.80;;
14121;SDS011;7139;48.114;11.442;2022-07-23T00:28:16;8.05;;;7.38;;
14121;SDS011;7139;48.114;11.442;2022-07-23T00:30:43;8.43;;;7.72;;
14121;SDS011;7139;48.114;11.442;2022-07-23T00:33:10;8.30;;;7.68;;
14121;SDS011;7139;48.114;11.442;2022-07-23T00:35:39;8.30;;;7.68;;
14121;SDS011;7139;48.114;11.442;2022-07-23T00:38:07;8.23;;;7.53;;
14121;SDS011;7139;48.114;11.442;2022-07-23T00:40:35;8.40;;;7.60;;
14121;SDS011;7139;48.114;11.442;2022-07-23T00:43:02;8.60;;;7.72;;
14121;SDS011;7139;48.114;11.442;2022-07-23T00:45:29;7.70;;;7.10;;
14121;SDS011;7139;48.114;11.442;2022-07-23T00:47:57;7.90;;;7.30;;
14121;SDS011;7139;48.114;11.442;2022-07-23T00:50:24;8.13;;;7.43;;
14121;SDS011;7139;48.114;11.442;2022-07-23T00:52:52;8.32;;;7.63;;
14121;SDS011;7139;48.114;11.442;2022-07-23T00:55:19;7.70;;;7.00;;
14121;SDS011;7139;48.114;11.442;2022-07-23T00:57:46;8.30;;;7.70;;
14121;SDS011;7139;48.114;11.442;2022-07-23T01:00:14;8.45;;;7.70;;
14121;SDS011;7139;48.114;11.442;2022-07-23T01:02:42;9.00;;;8.30;;
14121;SDS011;7139;48.114;11.442;2022-07-23T01:05:09;8.27;;;7.45;;
14121;SDS011;7139;48.114;11.442;2022-07-23T01:07:36;8.60;;;7.90;;
14121;SDS011;7139;48.114;11.442;2022-07-23T01:10:06;8.77;;;8.00;;
14121;SDS011;7139;48.114;11.442;2022-07-23T01:12:53;9.85;;;8.25;;
14121;SDS011;7139;48.114;11.442;2022-07-23T01:15:20;9.55;;;8.65;;
14121;SDS011;7139;48.114;11.442;2022-07-23T01:17:47;13.15;;;8.43;;
14121;SDS011;7139;48.114;11.442;2022-07-23T01:20:14;7.57;;;6.90;;
14121;SDS011;7139;48.114;11.442;2022-07-23T01:22:43;10.75;;;6.85;;
14121;SDS011;7139;48.114;11.442;2022-07-23T01:25:10;10.40;;;7.25;;
14121;SDS011;7139;48.114;11.442;2022-07-23T01:27:36;9.90;;;7.40;;
14121;SDS011;7139;48.114;11.442;2022-07-23T01:30:03;8.40;;;7.60;;
14121;SDS011;7139;48.114;11.442;2022-07-23T01:32:31;8.93;;;7.97;;
14121;SDS011;7139;48.114;11.442;2022-07-23T01:34:58;13.27;;;8.90;;
14121;SDS011;7139;48.114;11.442;2022-07-23T01:37:25;9.63;;;8.53;;
14121;SDS011;7139;48.114;11.442;2022-07-23T01:39:53;10.33;;;9.10;;
14121;SDS011;7139;48.114;11.442;2022-07-23T01:42:19;11.47;;;9.50;;
14121;SDS011;7139;48.114;11.442;2022-07-23T01:44:46;10.97;;;9.13;;
14121;SDS011;7139;48.114;11.442;2022-07-23T01:47:13;10.03;;;9.03;;
14121;SDS011;7139;48.114;11.442;2022-07-23T01:49:40;9.77;;;8.53;;
14121;SDS011;7139;48.114;11.442;2022-07-23T01:52:06;10.40;;;9.33;;
14121;SDS011;7139;48.114;11.442;2022-07-23T01:54:35;10.83;;;9.73;;
14121;SDS011;7139;48.114;11.442;2022-07-23T01:57:05;10.40;;;9.40;;
14121;SDS011;7139;48.114;11.442;2022-07-23T01:59:33;10.17;;;9.27;;
14121;SDS011;7139;48.114;11.442;2022-07-23T02:02:00;10.70;;;9.60;;
14121;SDS011;7139;48.114;11.442;2022-07-23T02:04:28;9.33;;;8.53;;
14121;SDS011;7139;48.114;11.442;2022-07-23T02:06:55;9.10;;;8.40;;
14121;SDS011;7139;48.114;11.442;2022-07-23T02:09:22;9.27;;;8.40;;
14121;SDS011;7139;48.114;11.442;2022-07-23T02:11:49;9.23;;;8.43;;
14121;SDS011;7139;48.114;11.442;2022-07-23T02:14:17;9.67;;;8.87;;
14121;SDS011;7139;48.114;11.442;2022-07-23T02:16:43;9.27;;;8.37;;
14121;SDS011;7139;48.114;11.442;2022-07-23T02:19:10;8.87;;;7.97;;
14121;SDS011;7139;48.114;11.442;2022-07-23T02:21:37;7.57;;;6.97;;
14121;SDS011;7139;48.114;11.442;2022-07-23T02:24:04;7.37;;;6.70;;
14121;SDS011;7139;48.114;11.442;2022-07-23T02:26:31;6.93;;;6.27;;
14121;SDS011;7139;48.114;11.442;2022-07-23T02:28:59;8.90;;;6.00;;
14121;SDS011;7139;48.114;11.442;2022-07-23T02:31:28;5.87;;;5.27;;
14121;SDS011;7139;48.114;11.442;2022-07-23T02:33:55;5.80;;;5.40;;
14121;SDS011;7139;48.114;11.442;2022-07-23T02:36:21;5.67;;;5.07;;
14121;SDS011;7139;48.114;11.442;2022-07-23T02:38:48;5.40;;;5.00;;
14121;SDS011;7139;48.114;11.442;2022-07-23T02:41:15;5.70;;;4.60;;
14121;SDS011;7139;48.114;11.442;2022-07-23T02:43:42;5.20;;;4.70;;
14121;SDS011;7139;48.114;11.442;2022-07-23T02:46:09;4.23;;;3.70;;
14121;SDS011;7139;48.114;11.442;2022-07-23T02:48:37;4.40;;;3.73;;
14121;SDS011;7139;48.114;11.442;2022-07-23T02:51:04;4.30;;;3.90;;
14121;SDS011;7139;48.114;11.442;2022-07-23T02:53:31;4.57;;;4.17;;
14121;SDS011;7139;48.114;11.442;2022-07-23T02:55:57;4.90;;;4.17;;
14121;SDS011;7139;48.114;11.442;2022-07-23T02:58:24;4.73;;;4.33;;
14121;SDS011;7139;48.114;11.442;2022-07-23T03:00:51;5.00;;;4.50;;
14121;SDS011;7139;48.114;11.442;2022-07-23T03:03:18;5.60;;;4.90;;
14121;SDS011;7139;48.114;11.442;2022-07-23T03:05:46;5.43;;;4.93;;
14121;SDS011;7139;48.114;11.442;2022-07-23T03:08:13;5.70;;;5.20;;
14121;SDS011;7139;48.114;11.442;2022-07-23T03:10:40;6.07;;;5.57;;
14121;SDS011;7139;48.114;11.442;2022-07-23T03:13:07;6.40;;;5.80;;
14121;SDS011;7139;48.114;11.442;2022-07-23T03:15:34;6.50;;;5.90;;
14121;SDS011;7139;48.114;11.442;2022-07-23T03:18:00;7.03;;;6.43;;
14121;SDS011;7139;48.114;11.442;2022-07-23T03:20:27;6.23;;;5.73;;
14121;SDS011;7139;48.114;11.442;2022-07-23T03:22:55;6.80;;;6.20;;
14121;SDS011;7139;48.114;11.442;2022-07-23T03:25:22;6.97;;;6.37;;
14121;SDS011;7139;48.114;11.442;2022-07-23T03:27:49;6.43;;;5.87;;
14121;SDS011;7139;48.114;11.442;2022-07-23T03:30:16;6.47;;;5.97;;
14121;SDS011;7139;48.114;11.442;2022-07-23T03:32:43;6.73;;;6.23;;
14121;SDS011;7139;48.114;11.442;2022-07-23T03:35:10;7.00;;;6.40;;
14121;SDS011;7139;48.114;11.442;2022-07-23T03:37:37;7.67;;;6.93;;
14121;SDS011;7139;48.114;11.442;2022-07-23T03:40:05;7.40;;;6.70;;
14121;SDS011;7139;48.114;11.442;2022-07-23T03:42:33;6.30;;;5.50;;
14121;SDS011;7139;48.114;11.442;2022-07-23T03:45:02;6.80;;;6.30;;
14121;SDS011;7139;48.114;11.442;2022-07-23T03:47:29;6.43;;;5.87;;
14121;SDS011;7139;48.114;11.442;2022-07-23T03:49:56;7.00;;;6.13;;
14121;SDS011;7139;48.114;11.442;2022-07-23T03:52:22;7.27;;;6.47;;
14121;SDS011;7139;48.114;11.442;2022-07-23T03:54:49;6.97;;;6.27;;
14121;SDS011;7139;48.114;11.442;2022-07-23T03:57:17;6.57;;;5.97;;
14121;SDS011;7139;48.114;11.442;2022-07-23T03:59:44;7.23;;;6.63;;
14121;SDS011;7139;48.114;11.442;2022-07-23T04:02:11;7.03;;;6.43;;
14121;SDS011;7139;48.114;11.442;2022-07-23T04:04:37;6.73;;;6.10;;
14121;SDS011;7139;48.114;11.442;2022-07-23T04:07:04;7.43;;;6.83;;
14121;SDS011;7139;48.114;11.442;2022-07-23T04:09:32;7.40;;;6.47;;
14121;SDS011;7139;48.114;11.442;2022-07-23T04:11:58;6.90;;;6.30;;
14121;SDS011;7139;48.114;11.442;2022-07-23T04:14:27;6.63;;;6.07;;
14121;SDS011;7139;48.114;11.442;2022-07-23T04:16:54;6.80;;;6.20;;
14121;SDS011;7139;48.114;11.442;2022-07-23T04:19:21;6.87;;;6.27;;
14121;SDS011;7139;48.114;11.442;2022-07-23T04:21:47;7.43;;;6.70;;
14121;SDS011;7139;48.114;11.442;2022-07-23T04:24:14;6.90;;;6.40;;
14121;SDS011;7139;48.114;11.442;2022-07-23T04:26:41;6.53;;;6.03;;
14121;SDS011;7139;48.114;11.442;2022-07-23T04:29:07;7.80;;;6.63;;
14121;SDS011;7139;48.114;11.442;2022-07-23T04:31:36;7.37;;;6.70;;
14121;SDS011;7139;48.114;11.442;2022-07-23T04:34:02;7.03;;;6.43;;
14121;SDS011;7139;48.114;11.442;2022-07-23T04:36:29;7.03;;;6.43;;
14121;SDS011;7139;48.114;11.442;2022-07-23T04:38:56;7.67;;;6.97;;
14121;SDS011;7139;48.114;11.442;2022-07-23T04:41:23;6.80;;;6.30;;
14121;SDS011;7139;48.114;11.442;2022-07-23T04:43:50;6.70;;;6.20;;
14121;SDS011;7139;48.114;11.442;2022-07-23T04:46:17;6.87;;;6.30;;
14121;SDS011;7139;48.114;11.442;2022-07-23T04:48:45;7.37;;;6.60;;
14121;SDS011;7139;48.114;11.442;2022-07-23T04:51:12;7.00;;;6.50;;
14121;SDS011;7139;48.114;11.442;2022-07-23T04:53:39;7.33;;;6.73;;
14121;SDS011;7139;48.114;11.442;2022-07-23T04:56:06;7.00;;;6.40;;
14121;SDS011;7139;48.114;11.442;2022-07-23T04:58:33;7.00;;;6.40;;
14121;SDS011;7139;48.114;11.442;2022-07-23T05:01:00;6.77;;;6.23;;
14121;SDS011;7139;48.114;11.442;2022-07-23T05:03:27;7.13;;;6.53;;
14121;SDS011;7139;48.114;11.442;2022-07-23T05:05:55;6.43;;;5.83;;
14121;SDS011;7139;48.114;11.442;2022-07-23T05:08:22;7.67;;;7.07;;
14121;SDS011;7139;48.114;11.442;2022-07-23T05:10:49;7.80;;;7.20;;
14121;SDS011;7139;48.114;11.442;2022-07-23T05:13:15;7.60;;;6.90;;
14121;SDS011;7139;48.114;11.442;2022-07-23T05:15:42;7.10;;;6.60;;
14121;SDS011;7139;48.114;11.442;2022-07-23T05:18:09;6.90;;;6.30;;
14121;SDS011;7139;48.114;11.442;2022-07-23T05:20:36;7.53;;;6.83;;
14121;SDS011;7139;48.114;11.442;2022-07-23T05:23:04;7.90;;;7.30;;
14121;SDS011;7139;48.114;11.442;2022-07-23T05:25:31;7.23;;;6.63;;
14121;SDS011;7139;48.114;11.442;2022-07-23T05:27:58;7.10;;;6.50;;
14121;SDS011;7139;48.114;11.442;2022-07-23T05:30:25;6.90;;;6.40;;
14121;SDS011;7139;48.114;11.442;2022-07-23T05:32:52;7.73;;;7.13;;
14121;SDS011;7139;48.114;11.442;2022-07-23T05:35:18;8.00;;;7.30;;
14121;SDS011;7139;48.114;11.442;2022-07-23T05:37:45;7.40;;;6.80;;
14121;SDS011;7139;48.114;11.442;2022-07-23T05:40:14;7.60;;;6.90;;
14121;SDS011;7139;48.114;11.442;2022-07-23T05:42:41;7.63;;;7.03;;
14121;SDS011;7139;48.114;11.442;2022-07-23T05:45:08;7.70;;;7.10;;
14121;SDS011;7139;48.114;11.442;2022-07-23T05:47:39;7.73;;;7.03;;
14121;SDS011;7139;48.114;11.442;2022-07-23T05:50:07;8.07;;;7.43;;
14121;SDS011;7139;48.114;11.442;2022-07-23T05:52:34;7.80;;;7.20;;
14121;SDS011;7139;48.114;11.442;2022-07-23T05:55:01;8.63;;;7.73;;
14121;SDS011;7139;48.114;11.442;2022-07-23T05:57:29;7.93;;;7.33;;
14121;SDS011;7139;48.114;11.442;2022-07-23T05:59:56;8.37;;;7.73;;
14121;SDS011;7139;48.114;11.442;2022-07-23T06:02:23;7.90;;;7.27;;
14121;SDS011;7139;48.114;11.442;2022-07-23T06:04:50;8.27;;;7.67;;
14121;SDS011;7139;48.114;11.442;2022-07-23T06:07:16;8.43;;;7.83;;
14121;SDS011;7139;48.114;11.442;2022-07-23T06:09:43;8.73;;;8.03;;
14121;SDS011;7139;48.114;11.442;2022-07-23T06:12:11;9.10;;;8.30;;
14121;SDS011;7139;48.114;11.442;2022-07-23T06:14:40;9.10;;;8.30;;
14121;SDS011;7139;48.114;11.442;2022-07-23T06:17:07;8.80;;;7.90;;
14121;SDS011;7139;48.114;11.442;2022-07-23T06:19:34;8.53;;;7.87;;
14121;SDS011;7139;48.114;11.442;2022-07-23T06:22:00;8.27;;;7.63;;
14121;SDS011;7139;48.114;11.442;2022-07-23T06:24:27;8.97;;;8.20;;
14121;SDS011;7139;48.114;11.442;2022-07-23T06:26:54;9.33;;;8.50;;
14121;SDS011;7139;48.114;11.442;2022-07-23T06:29:21;8.07;;;7.47;;
14121;SDS011;7139;48.114;11.442;2022-07-23T06:31:49;9.00;;;8.13;;
14121;SDS011;7139;48.114;11.442;2022-07-23T06:34:16;9.23;;;8.40;;
14121;SDS011;7139;48.114;11.442;2022-07-23T06:36:43;9.47;;;8.33;;
14121;SDS011;7139;48.114;11.442;2022-07-23T06:39:10;11.60;;;8.60;;
14121;SDS011;7139;48.114;11.442;2022-07-23T06:41:36;7.80;;;7.20;;
14121;SDS011;7139;48.114;11.442;2022-07-23T06:44:03;8.57;;;7.87;;
14121;SDS011;7139;48.114;11.442;2022-07-23T06:46:30;8.30;;;7.60;;
14121;SDS011;7139;48.114;11.442;2022-07-23T06:48:58;9.33;;;8.63;;
14121;SDS011;7139;48.114;11.442;2022-07-23T06:51:25;8.73;;;8.03;;
14121;SDS011;7139;48.114;11.442;2022-07-23T06:53:52;8.53;;;7.83;;
14121;SDS011;7139;48.114;11.442;2022-07-23T06:56:19;8.63;;;7.93;;
14121;SDS011;7139;48.114;11.442;2022-07-23T06:58:45;9.07;;;8.17;;
14121;SDS011;7139;48.114;11.442;2022-07-23T07:01:12;8.57;;;7.90;;
14121;SDS011;7139;48.114;11.442;2022-07-23T07:03:39;9.60;;;8.80;;
14121;SDS011;7139;48.114;11.442;2022-07-23T07:06:07;8.90;;;8.20;;
14121;SDS011;7139;48.114;11.442;2022-07-23T07:08:34;9.77;;;8.97;;
14121;SDS011;7139;48.114;11.442;2022-07-23T07:11:01;8.53;;;7.93;;
14121;SDS011;7139;48.114;11.442;2022-07-23T07:13:28;8.90;;;8.10;;
14121;SDS011;7139;48.114;11.442;2022-07-23T07:15:55;8.47;;;7.77;;
14121;SDS011;7139;48.114;11.442;2022-07-23T07:18:22;9.87;;;8.97;;
14121;SDS011;7139;48.114;11.442;2022-07-23T07:20:49;9.47;;;8.77;;
14121;SDS011;7139;48.114;11.442;2022-07-23T07:23:17;10.00;;;9.20;;
14121;SDS011;7139;48.114;11.442;2022-07-23T07:25:45;10.00;;;9.20;;
14121;SDS011;7139;48.114;11.442;2022-07-23T07:28:12;10.50;;;9.60;;
14121;SDS011;7139;48.114;11.442;2022-07-23T07:30:39;10.47;;;9.67;;
14121;SDS011;7139;48.114;11.442;2022-07-23T07:33:06;9.33;;;8.53;;
14121;SDS011;7139;48.114;11.442;2022-07-23T07:35:33;10.53;;;9.67;;
14121;SDS011;7139;48.114;11.442;2022-07-23T07:37:59;10.20;;;9.30;;
14121;SDS011;7139;48.114;11.442;2022-07-23T07:40:28;10.57;;;9.70;;
14121;SDS011;7139;48.114;11.442;2022-07-23T07:42:55;10.13;;;9.33;;
14121;SDS011;7139;48.114;11.442;2022-07-23T07:45:22;9.97;;;9.23;;
14121;SDS011;7139;48.114;11.442;2022-07-23T07:47:50;9.50;;;8.77;;
14121;SDS011;7139;48.114;11.442;2022-07-23T07:50:18;9.20;;;8.50;;
14121;SDS011;7139;48.114;11.442;2022-07-23T07:52:45;9.00;;;8.20;;
14121;SDS011;7139;48.114;11.442;2022-07-23T07:55:12;8.80;;;8.10;;
14121;SDS011;7139;48.114;11.442;2022-07-23T07:57:41;8.87;;;8.07;;
14121;SDS011;7139;48.114;11.442;2022-07-23T08:00:08;8.80;;;8.10;;
14121;SDS011;7139;48.114;11.442;2022-07-23T08:02:40;8.70;;;8.00;;
14121;SDS011;7139;48.114;11.442;2022-07-23T08:05:10;9.60;;;8.73;;
14121;SDS011;7139;48.114;11.442;2022-07-23T08:07:37;9.63;;;8.77;;
14121;SDS011;7139;48.114;11.442;2022-07-23T08:10:05;9.40;;;8.63;;
14121;SDS011;7139;48.114;11.442;2022-07-23T08:12:38;9.67;;;8.77;;
14121;SDS011;7139;48.114;11.442;2022-07-23T08:15:09;10.17;;;9.30;;
14121;SDS011;7139;48.114;11.442;2022-07-23T08:17:37;10.43;;;9.43;;
14121;SDS011;7139;48.114;11.442;2022-07-23T08:20:04;10.67;;;9.03;;
14121;SDS011;7139;48.114;11.442;2022-07-23T08:22:42;10.43;;;9.53;;
14121;SDS011;7139;48.114;11.442;2022-07-23T08:25:13;8.73;;;8.00;;
14121;SDS011;7139;48.114;11.442;2022-07-23T08:27:42;8.53;;;7.73;;
14121;SDS011;7139;48.114;11.442;2022-07-23T08:30:09;8.83;;;8.03;;
14121;SDS011;7139;48.114;11.442;2022-07-23T08:35:22;8.50;;;7.75;;
14121;SDS011;7139;48.114;11.442;2022-07-23T08:37:52;8.23;;;7.47;;
14121;SDS011;7139;48.114;11.442;2022-07-23T08:40:19;9.52;;;8.02;;
14121;SDS011;7139;48.114;11.442;2022-07-23T08:42:49;8.18;;;7.43;;
14121;SDS011;7139;48.114;11.442;2022-07-23T08:45:17;7.68;;;7.07;;
14121;SDS011;7139;48.114;11.442;2022-07-23T08:47:46;8.10;;;6.75;;
14121;SDS011;7139;48.114;11.442;2022-07-23T08:50:15;8.30;;;7.53;;
14121;SDS011;7139;48.114;11.442;2022-07-23T08:52:42;7.25;;;6.65;;
14121;SDS011;7139;48.114;11.442;2022-07-23T08:55:09;7.00;;;6.40;;
14121;SDS011;7139;48.114;11.442;2022-07-23T08:57:35;7.22;;;6.63;;
14121;SDS011;7139;48.114;11.442;2022-07-23T09:00:05;7.40;;;6.75;;
14121;SDS011;7139;48.114;11.442;2022-07-23T09:02:38;7.72;;;7.10;;
14121;SDS011;7139;48.114;11.442;2022-07-23T09:05:06;7.03;;;6.43;;
14121;SDS011;7139;48.114;11.442;2022-07-23T09:07:34;7.13;;;6.53;;
14121;SDS011;7139;48.114;11.442;2022-07-23T09:10:04;6.80;;;6.20;;
14121;SDS011;7139;48.114;11.442;2022-07-23T09:12:33;7.40;;;6.70;;
14121;SDS011;7139;48.114;11.442;2022-07-23T09:15:05;7.72;;;7.13;;
14121;SDS011;7139;48.114;11.442;2022-07-23T09:17:37;7.47;;;6.85;;
14121;SDS011;7139;48.114;11.442;2022-07-23T09:20:08;7.22;;;6.65;;
14121;SDS011;7139;48.114;11.442;2022-07-23T09:22:37;7.15;;;6.65;;
14121;SDS011;7139;48.114;11.442;2022-07-23T09:25:06;7.35;;;6.63;;
14121;SDS011;7139;48.114;11.442;2022-07-23T09:27:45;7.10;;;6.50;;
14121;SDS011;7139;48.114;11.442;2022-07-23T09:30:18;7.30;;;6.65;;
14121;SDS011;7139;48.114;11.442;2022-07-23T09:35:44;7.00;;;6.50;;
14121;SDS011;7139;48.114;11.442;2022-07-23T09:38:12;7.05;;;6.45;;
14121;SDS011;7139;48.114;11.442;2022-07-23T09:40:39;6.18;;;5.68;;
14121;SDS011;7139;48.114;11.442;2022-07-23T09:43:06;5.85;;;5.38;;
14121;SDS011;7139;48.114;11.442;2022-07-23T09:45:34;6.90;;;6.30;;
14121;SDS011;7139;48.114;11.442;2022-07-23T09:48:10;6.22;;;5.70;;
14121;SDS011;7139;48.114;11.442;2022-07-23T09:50:37;6.10;;;5.60;;
14121;SDS011;7139;48.114;11.442;2022-07-23T09:53:04;6.25;;;5.63;;
14121;SDS011;7139;48.114;11.442;2022-07-23T09:55:32;6.68;;;5.93;;
14121;SDS011;7139;48.114;11.442;2022-07-23T09:58:01;5.88;;;5.47;;
14121;SDS011;7139;48.114;11.442;2022-07-23T10:00:29;6.53;;;6.03;;
14121;SDS011;7139;48.114;11.442;2022-07-23T10:02:58;6.50;;;5.95;;
14121;SDS011;7139;48.114;11.442;2022-07-23T10:05:25;6.00;;;5.50;;
14121;SDS011;7139;48.114;11.442;2022-07-23T10:07:53;6.35;;;5.75;;
14121;SDS011;7139;48.114;11.442;2022-07-23T10:10:21;6.32;;;5.78;;
14121;SDS011;7139;48.114;11.442;2022-07-23T10:12:52;5.75;;;5.25;;
14121;SDS011;7139;48.114;11.442;2022-07-23T10:15:49;5.60;;;5.20;;
14121;SDS011;7139;48.114;11.442;2022-07-23T10:18:18;5.68;;;5.28;;
14121;SDS011;7139;48.114;11.442;2022-07-23T10:20:45;6.05;;;5.55;;
14121;SDS011;7139;48.114;11.442;2022-07-23T10:23:14;5.70;;;5.28;;
14121;SDS011;7139;48.114;11.442;2022-07-23T10:25:49;5.32;;;4.93;;
14121;SDS011;7139;48.114;11.442;2022-07-23T10:28:29;5.35;;;4.95;;
14121;SDS011;7139;48.114;11.442;2022-07-23T10:31:17;5.20;;;4.80;;
14121;SDS011;7139;48.114;11.442;2022-07-23T10:33:59;7.07;;;5.30;;
14121;SDS011;7139;48.114;11.442;2022-07-23T10:36:36;16.70;;;5.60;;
14121;SDS011;7139;48.114;11.442;2022-07-23T10:39:10;5.55;;;5.15;;
14121;SDS011;7139;48.114;11.442;2022-07-23T10:41:41;5.60;;;5.10;;
14121;SDS011;7139;48.114;11.442;2022-07-23T10:44:09;5.75;;;5.20;;
14121;SDS011;7139;48.114;11.442;2022-07-23T10:49:40;5.85;;;5.40;;
14121;SDS011;7139;48.114;11.442;2022-07-23T10:57:55;6.00;;;5.40;;
14121;SDS011;7139;48.114;11.442;2022-07-23T11:00:22;6.47;;;5.75;;
14121;SDS011;7139;48.114;11.442;2022-07-23T11:02:50;5.85;;;5.32;;
14121;SDS011;7139;48.114;11.442;2022-07-23T11:05:40;5.88;;;5.38;;
14121;SDS011;7139;48.114;11.442;2022-07-23T11:10:46;6.18;;;5.68;;
14121;SDS011;7139;48.114;11.442;2022-07-23T11:16:17;6.70;;;6.20;;
14121;SDS011;7139;48.114;11.442;2022-07-23T11:18:56;6.38;;;5.82;;
14121;SDS011;7139;48.114;11.442;2022-07-23T11:21:46;6.55;;;5.90;;
14121;SDS011;7139;48.114;11.442;2022-07-23T11:24:18;7.15;;;5.82;;
14121;SDS011;7139;48.114;11.442;2022-07-23T11:26:47;7.50;;;5.93;;
14121;SDS011;7139;48.114;11.442;2022-07-23T11:29:48;6.57;;;6.07;;
14121;SDS011;7139;48.114;11.442;2022-07-23T11:32:29;6.22;;;5.72;;
14121;SDS011;7139;48.114;11.442;2022-07-23T11:35:21;6.90;;;6.30;;
14121;SDS011;7139;48.114;11.442;2022-07-23T11:37:51;7.18;;;6.55;;
14121;SDS011;7139;48.114;11.442;2022-07-23T11:40:23;7.78;;;6.93;;
14121;SDS011;7139;48.114;11.442;2022-07-23T11:42:52;7.80;;;7.10;;
14121;SDS011;7139;48.114;11.442;2022-07-23T11:45:20;7.32;;;6.57;;
14121;SDS011;7139;48.114;11.442;2022-07-23T11:47:47;7.32;;;6.72;;
14121;SDS011;7139;48.114;11.442;2022-07-23T11:50:14;7.18;;;6.57;;
14121;SDS011;7139;48.114;11.442;2022-07-23T11:52:41;6.63;;;6.00;;
14121;SDS011;7139;48.114;11.442;2022-07-23T11:55:10;7.25;;;6.55;;
14121;SDS011;7139;48.114;11.442;2022-07-23T11:57:37;6.97;;;6.40;;
14121;SDS011;7139;48.114;11.442;2022-07-23T12:00:06;7.32;;;6.72;;
14121;SDS011;7139;48.114;11.442;2022-07-23T12:02:35;7.47;;;6.78;;
14121;SDS011;7139;48.114;11.442;2022-07-23T12:05:03;6.28;;;5.65;;
14121;SDS011;7139;48.114;11.442;2022-07-23T12:07:31;7.28;;;6.57;;
14121;SDS011;7139;48.114;11.442;2022-07-23T12:09:59;7.28;;;6.63;;
14121;SDS011;7139;48.114;11.442;2022-07-23T12:12:35;8.23;;;7.53;;
14121;SDS011;7139;48.114;11.442;2022-07-23T12:15:03;7.85;;;7.15;;
14121;SDS011;7139;48.114;11.442;2022-07-23T12:17:32;7.20;;;6.60;;
14121;SDS011;7139;48.114;11.442;2022-07-23T12:20:00;7.88;;;7.18;;
14121;SDS011;7139;48.114;11.442;2022-07-23T12:22:33;7.30;;;6.70;;
14121;SDS011;7139;48.114;11.442;2022-07-23T12:25:02;7.57;;;6.68;;
14121;SDS011;7139;48.114;11.442;2022-07-23T12:27:30;7.43;;;6.72;;
14121;SDS011;7139;48.114;11.442;2022-07-23T12:29:59;8.80;;;8.00;;
14121;SDS011;7139;48.114;11.442;2022-07-23T12:32:42;7.32;;;6.63;;
14121;SDS011;7139;48.114;11.442;2022-07-23T12:35:09;7.72;;;6.95;;
14121;SDS011;7139;48.114;11.442;2022-07-23T12:37:37;7.78;;;7.10;;
14121;SDS011;7139;48.114;11.442;2022-07-23T12:42:55;7.10;;;6.50;;
14121;SDS011;7139;48.114;11.442;2022-07-23T12:45:26;8.07;;;7.38;;
14121;SDS011;7139;48.114;11.442;2022-07-23T12:48:02;7.15;;;6.55;;
14121;SDS011;7139;48.114;11.442;2022-07-23T12:50:42;6.88;;;6.25;;
14121;SDS011;7139;48.114;11.442;2022-07-23T12:53:11;6.78;;;6.28;;
14121;SDS011;7139;48.114;11.442;2022-07-23T12:55:41;6.95;;;6.35;;
14121;SDS011;7139;48.114;11.442;2022-07-23T12:58:13;7.47;;;6.68;;
14121;SDS011;7139;48.114;11.442;2022-07-23T13:00:52;6.95;;;6.35;;
14121;SDS011;7139;48.114;11.442;2022-07-23T13:03:22;7.72;;;7.03;;
14121;SDS011;7139;48.114;11.442;2022-07-23T13:05:49;7.00;;;6.40;;
14121;SDS011;7139;48.114;11.442;2022-07-23T13:08:16;7.78;;;7.05;;
14121;SDS011;7139;48.114;11.442;2022-07-23T13:10:43;7.40;;;6.70;;
14121;SDS011;7139;48.114;11.442;2022-07-23T13:13:12;7.80;;;7.10;;
14121;SDS011;7139;48.114;11.442;2022-07-23T13:15:39;7.25;;;6.60;;
14121;SDS011;7139;48.114;11.442;2022-07-23T13:18:07;7.35;;;6.75;;
14121;SDS011;7139;48.114;11.442;2022-07-23T13:20:34;7.25;;;6.65;;
14121;SDS011;7139;48.114;11.442;2022-07-23T13:23:01;7.53;;;6.82;;
14121;SDS011;7139;48.114;11.442;2022-07-23T13:25:28;7.45;;;6.85;;
14121;SDS011;7139;48.114;11.442;2022-07-23T13:27:55;7.40;;;6.70;;
14121;SDS011;7139;48.114;11.442;2022-07-23T13:30:21;7.10;;;6.57;;
14121;SDS011;7139;48.114;11.442;2022-07-23T13:32:48;7.28;;;6.65;;
14121;SDS011;7139;48.114;11.442;2022-07-23T13:35:16;7.35;;;6.70;;
14121;SDS011;7139;48.114;11.442;2022-07-23T13:37:43;7.22;;;6.57;;
14121;SDS011;7139;48.114;11.442;2022-07-23T13:40:10;6.80;;;6.30;;
14121;SDS011;7139;48.114;11.442;2022-07-23T13:42:37;6.57;;;6.00;;
14121;SDS011;7139;48.114;11.442;2022-07-23T13:45:04;6.38;;;5.88;;
14121;SDS011;7139;48.114;11.442;2022-07-23T13:47:32;6.85;;;6.35;;
14121;SDS011;7139;48.114;11.442;2022-07-23T13:49:59;7.40;;;6.72;;
14121;SDS011;7139;48.114;11.442;2022-07-23T13:52:27;7.45;;;6.30;;
14121;SDS011;7139;48.114;11.442;2022-07-23T13:54:54;7.03;;;6.50;;
14121;SDS011;7139;48.114;11.442;2022-07-23T13:57:20;6.85;;;6.25;;
14121;SDS011;7139;48.114;11.442;2022-07-23T13:59:47;7.05;;;6.55;;
14121;SDS011;7139;48.114;11.442;2022-07-23T14:02:14;7.07;;;6.53;;
14121;SDS011;7139;48.114;11.442;2022-07-23T14:04:42;7.45;;;6.75;;
14121;SDS011;7139;48.114;11.442;2022-07-23T14:07:10;7.13;;;6.22;;
14121;SDS011;7139;48.114;11.442;2022-07-23T14:09:38;7.47;;;6.75;;
14121;SDS011;7139;48.114;11.442;2022-07-23T14:12:05;6.65;;;6.10;;
14121;SDS011;7139;48.114;11.442;2022-07-23T14:14:33;6.60;;;6.10;;
14121;SDS011;7139;48.114;11.442;2022-07-23T14:17:01;6.90;;;6.32;;
14121;SDS011;7139;48.114;11.442;2022-07-23T14:19:27;6.45;;;5.95;;
14121;SDS011;7139;48.114;11.442;2022-07-23T14:21:55;6.50;;;5.90;;
14121;SDS011;7139;48.114;11.442;2022-07-23T14:24:21;7.47;;;6.40;;
14121;SDS011;7139;48.114;11.442;2022-07-23T14:26:49;6.60;;;6.07;;
14121;SDS011;7139;48.114;11.442;2022-07-23T14:29:16;7.13;;;6.55;;
14121;SDS011;7139;48.114;11.442;2022-07-23T14:31:43;6.70;;;6.10;;
14121;SDS011;7139;48.114;11.442;2022-07-23T14:34:10;7.00;;;6.40;;
14121;SDS011;7139;48.114;11.442;2022-07-23T14:36:37;7.65;;;6.72;;
14121;SDS011;7139;48.114;11.442;2022-07-23T14:39:04;6.80;;;6.20;;
14121;SDS011;7139;48.114;11.442;2022-07-23T14:41:33;7.20;;;6.57;;
14121;SDS011;7139;48.114;11.442;2022-07-23T14:44:01;7.15;;;6.53;;
14121;SDS011;7139;48.114;11.442;2022-07-23T14:46:29;7.60;;;6.90;;
14121;SDS011;7139;48.114;11.442;2022-07-23T14:48:56;7.38;;;6.75;;
14121;SDS011;7139;48.114;11.442;2022-07-23T14:51:22;8.18;;;7.40;;
14121;SDS011;7139;48.114;11.442;2022-07-23T14:53:49;8.13;;;7.35;;
14121;SDS011;7139;48.114;11.442;2022-07-23T14:56:16;7.55;;;6.85;;
14121;SDS011;7139;48.114;11.442;2022-07-23T14:58:43;7.95;;;7.32;;
14121;SDS011;7139;48.114;11.442;2022-07-23T15:01:11;8.07;;;7.30;;
14121;SDS011;7139;48.114;11.442;2022-07-23T15:03:38;7.90;;;7.30;;
14121;SDS011;7139;48.114;11.442;2022-07-23T15:06:05;7.13;;;6.53;;
14121;SDS011;7139;48.114;11.442;2022-07-23T15:08:32;7.28;;;6.60;;
14121;SDS011;7139;48.114;11.442;2022-07-23T15:10:59;7.45;;;6.85;;
14121;SDS011;7139;48.114;11.442;2022-07-23T15:13:26;7.68;;;7.07;;
14121;SDS011;7139;48.114;11.442;2022-07-23T15:15:53;7.60;;;7.00;;